Accueil
METAR-TAF:

METAR-TAF

Aéroports :

Aéroport de Gabès-Matmata

Gabès, Tunisie

latitude: 33-53N, longitude: 010-06E, altitude: 4 m

Observation

Le bulletin a été fait il y a 47 minutes, à 12:00 UTC
Vent 16 kt de est/sud-est
Température 18°C
Humidité 39%
Pression 1019 hPa
Visibilité 10 km ou plus
Quelques nuages à une hauteur de 3000 ft

METAR: DTTG 201200Z 11016KT 9999 FEW030 18/04 Q1019 NOSIG

Heure: 13:47 (12:47 UTC)

Prévision

Le bulletin a été fait il y a 3 heures et 47 minutes, à 09:00 UTC
Prévision valable du 20 à 10 UTC au 20 à 19 UTC
Vent 10 kt de est
Visibilité 10 km ou plus
Quelques nuages à une hauteur de 2000 ft
Nuages épars à une hauteur de 3000 ft
Evoluant progressivement
du 20 à 14 UTC au 20 à 16 UTC
Vent 15 kt de est/sud-est avec des rafales jusqu'à 25 kt

TAF: DTTG 200900Z 2010/2019 09010KT 9999 FEW020 SCT030 BECMG 2014/2016 12015G25KT

Observations et prévisions météorologiques de plus de 4000 aéroports (messages METAR et TAF).

Les stations disponibles sont représentées par des disques jaunes et rouges sur la carte.

Passer la souris dessus pour voir le nom de la station.

Cliquer dessus pour voir les observations et prévisions météorologiques.

Pour changer de carte: cliquez sur les boutons verts avec une croix noire pour zoomer, sur le bouton vert avec un tiret pour effectuer un zoom arrière, ou sur les flèches vertes pour les cartes adjacentes.


METAR-TAF: